Terminal Aerodrome Forecast
Issued by NWS

Home | Current Version | Previous Version | Text Only | Print | Product List | Glossary On
Versions: 1 2 3 4 5 6 7 8 9 10 11 12 13 14 15 16 17
886
FTUS43 KAPX 202320
TAFPLN
TAF
KPLN 202320Z 2100/2124 15004KT P6SM FEW200
     FM210600 VRB03KT P6SM VCTS BKN060CB
     FM211000 VRB03KT P6SM VCTS OVC045CB
     FM211100 VRB03KT 3SM BR VCTS OVC025CB
     FM211200 VRB03KT 2SM BR BKN025
     FM211400 09004KT P6SM BKN030
     FM211800 09004KT P6SM SCT040=

USA.gov is the U.S. government's official web portal to all federal, state and local government web resources and services.